Time;durP1;ratioP1;P1;durP2;ratioP2;P2;SDS_P1;SDS_P2;PMS_P1;PMS_P2;Temp;Humidity;BMP_temperature;BMP_pressure;BME280_temperature;BME280_humidity;BME280_pressure;Samples;Min_cycle;Max_cycle;Signal;HPM_P1;HPM_P2
2021/12/08 00:01:33;;;;;;;3.37;3.17;;;;;;;2.58;100.00;98338.03;5072949;28;20495;-67
2021/12/08 00:04:00;;;;;;;3.57;3.37;;;;;;;2.54;100.00;98336.78;5072890;28;20495;-67
2021/12/08 00:06:28;;;;;;;2.83;2.73;;;;;;;2.52;100.00;98348.41;5073374;28;20474;-67
2021/12/08 00:09:17;;;;;;;2.97;2.87;;;;;;;2.58;100.00;98353.75;5073103;28;20492;-67
2021/12/08 00:14:28;;;;;;;2.67;2.57;;;;;;;2.59;100.00;98352.78;5073313;28;20405;-67
2021/12/08 00:16:55;;;;;;;3.10;2.90;;;;;;;2.56;100.00;98368.03;5071974;28;20441;-68
2021/12/08 00:19:23;;;;;;;3.33;3.17;;;;;;;2.54;100.00;98368.22;5054369;28;20447;-67
2021/12/08 00:21:51;;;;;;;2.70;2.60;;;;;;;2.56;100.00;98371.47;5067973;28;20528;-67
2021/12/08 00:24:18;;;;;;;2.77;2.67;;;;;;;2.55;100.00;98369.03;5072793;28;20463;-67
2021/12/08 00:26:45;;;;;;;2.80;2.70;;;;;;;2.55;100.00;98359.38;5072341;28;20505;-67
2021/12/08 00:29:11;;;;;;;2.93;2.83;;;;;;;2.64;100.00;98371.44;5072959;28;20442;-67
2021/12/08 00:31:40;;;;;;;3.10;2.80;;;;;;;2.63;100.00;98367.19;5072372;28;21022;-68
2021/12/08 00:34:06;;;;;;;3.27;3.07;;;;;;;2.64;100.00;98374.06;5072607;28;20893;-68
2021/12/08 00:36:41;;;;;;;3.33;3.13;;;;;;;2.62;100.00;98369.97;5072609;28;20437;-67
2021/12/08 00:39:10;;;;;;;3.23;3.07;;;;;;;2.58;100.00;98379.19;5072873;28;20803;-68
2021/12/08 00:41:37;;;;;;;3.17;3.07;;;;;;;2.58;100.00;98374.72;5072478;28;20491;-68
2021/12/08 00:44:04;;;;;;;2.80;2.70;;;;;;;2.56;100.00;98381.13;5072208;28;20457;-68
2021/12/08 00:46:30;;;;;;;3.03;2.50;;;;;;;2.61;100.00;98390.13;5072751;28;20462;-68
2021/12/08 00:48:58;;;;;;;3.13;2.93;;;;;;;2.59;100.00;98392.09;5072442;28;20434;-67
2021/12/08 00:51:26;;;;;;;2.90;2.80;;;;;;;2.52;100.00;98391.16;5072438;28;20438;-67
2021/12/08 00:53:53;;;;;;;2.80;2.60;;;;;;;2.62;100.00;98396.97;5071951;28;20829;-67
2021/12/08 00:56:21;;;;;;;2.73;2.63;;;;;;;2.59;100.00;98392.09;5072370;28;20450;-68
2021/12/08 00:58:47;;;;;;;2.97;2.77;;;;;;;2.66;100.00;98402.72;5072003;28;20793;-68
2021/12/08 01:01:15;;;;;;;2.87;2.67;;;;;;;2.65;100.00;98391.41;5072340;28;20438;-68
2021/12/08 01:03:45;;;;;;;2.77;2.67;;;;;;;2.68;100.00;98391.06;5073097;28;20495;-68
2021/12/08 01:06:13;;;;;;;2.87;2.77;;;;;;;2.77;100.00;98387.41;5072210;28;20586;-68
2021/12/08 01:08:40;;;;;;;2.77;2.67;;;;;;;2.70;100.00;98385.66;5072179;28;20446;-68
2021/12/08 01:11:10;;;;;;;2.50;2.40;;;;;;;2.74;100.00;98379.88;5072173;28;20515;-68
2021/12/08 01:13:39;;;;;;;2.57;2.47;;;;;;;2.69;100.00;98381.41;5072480;28;20487;-68
2021/12/08 01:16:06;;;;;;;2.37;2.27;;;;;;;2.77;100.00;98384.78;5072135;28;20495;-68
2021/12/08 01:18:33;;;;;;;2.60;2.50;;;;;;;2.79;100.00;98390.69;5071868;28;20873;-68
2021/12/08 01:21:03;;;;;;;2.53;2.40;;;;;;;2.80;100.00;98384.44;5072121;28;20446;-68
2021/12/08 01:23:30;;;;;;;3.20;3.00;;;;;;;2.80;100.00;98386.22;5072302;28;20937;-68
2021/12/08 01:25:57;;;;;;;2.40;2.30;;;;;;;2.78;100.00;98383.78;5071729;28;20992;-68
2021/12/08 01:28:24;;;;;;;2.70;2.60;;;;;;;2.86;100.00;98385.56;5071757;28;20867;-68
2021/12/08 01:30:54;;;;;;;2.60;2.50;;;;;;;2.87;100.00;98385.38;5072265;28;20437;-68
2021/12/08 01:33:23;;;;;;;2.73;2.63;;;;;;;2.91;100.00;98380.59;5075867;28;20441;-68
2021/12/08 01:35:51;;;;;;;2.63;2.53;;;;;;;2.81;100.00;98386.06;5075767;28;20484;-68
2021/12/08 01:38:18;;;;;;;2.50;2.30;;;;;;;2.82;100.00;98387.69;5075761;28;20506;-67
2021/12/08 01:40:45;;;;;;;2.80;2.70;;;;;;;2.96;100.00;98383.50;5075983;28;20434;-68
2021/12/08 01:43:24;;;;;;;2.87;2.77;;;;;;;2.90;100.00;98386.84;5075951;28;20434;-68
2021/12/08 01:45:59;;;;;;;2.17;2.17;;;;;;;2.95;100.00;98387.94;5076001;28;20477;-67
2021/12/08 01:48:29;;;;;;;2.40;2.20;;;;;;;2.83;100.00;98380.66;5076711;28;20454;-68
2021/12/08 01:50:58;;;;;;;2.53;2.43;;;;;;;2.94;100.00;98396.78;5075768;28;20438;-68
2021/12/08 01:53:25;;;;;;;2.33;2.23;;;;;;;2.93;100.00;98397.78;5075397;28;20434;-68
2021/12/08 01:55:52;;;;;;;2.70;2.60;;;;;;;2.89;100.00;98406.97;5075391;28;20563;-67
2021/12/08 01:58:20;;;;;;;2.47;2.37;;;;;;;2.83;100.00;98405.06;5075599;28;20442;-68
2021/12/08 02:00:50;;;;;;;2.20;2.20;;;;;;;2.84;100.00;98406.69;5075555;28;20860;-68
2021/12/08 02:03:19;;;;;;;2.50;2.40;;;;;;;2.81;100.00;98401.78;5076375;28;20438;-67
2021/12/08 02:05:46;;;;;;;5.53;2.70;;;;;;;2.89;100.00;98414.84;5075405;28;20430;-67
2021/12/08 02:08:13;;;;;;;2.80;2.60;;;;;;;2.87;100.00;98418.63;5075442;28;20441;-67
2021/12/08 02:10:41;;;;;;;2.33;2.23;;;;;;;2.99;100.00;98412.81;5075087;28;20935;-67
2021/12/08 02:13:09;;;;;;;2.40;2.30;;;;;;;3.01;100.00;98418.72;5075323;28;20945;-68
2021/12/08 02:15:38;;;;;;;2.80;2.60;;;;;;;3.01;100.00;98412.63;5076164;28;20528;-67
2021/12/08 02:18:07;;;;;;;2.73;2.53;;;;;;;3.03;100.00;98419.34;5075242;28;20438;-67
2021/12/08 02:20:36;;;;;;;2.83;2.60;;;;;;;3.02;100.00;98425.56;5075471;28;20438;-67
2021/12/08 02:23:04;;;;;;;3.40;2.63;;;;;;;3.11;100.00;98423.72;5075071;28;20495;-67
2021/12/08 02:25:31;;;;;;;2.63;2.53;;;;;;;3.07;100.00;98418.00;5074792;28;20492;-68
2021/12/08 02:28:00;;;;;;;2.47;2.37;;;;;;;3.09;100.00;98423.06;5074728;28;20477;-67
2021/12/08 02:30:34;;;;;;;2.87;2.77;;;;;;;3.12;100.00;98415.69;5074754;28;21025;-67
2021/12/08 02:46:51;;;;;;;2.20;2.10;;;;;;;3.26;100.00;98443.75;5074636;28;20457;-67
2021/12/08 02:49:19;;;;;;;2.67;2.57;;;;;;;3.33;100.00;98436.84;5074821;28;20534;-68
2021/12/08 02:51:47;;;;;;;2.60;2.50;;;;;;;3.25;100.00;98444.75;5074357;28;20949;-68
2021/12/08 02:54:16;;;;;;;2.73;2.63;;;;;;;3.27;100.00;98448.00;5074475;28;20442;-68
2021/12/08 02:56:43;;;;;;;2.80;2.70;;;;;;;3.34;100.00;98446.31;5074583;28;20645;-68
2021/12/08 02:59:10;;;;;;;2.47;2.37;;;;;;;3.31;100.00;98446.66;5074225;28;20438;-68
2021/12/08 03:01:37;;;;;;;2.27;2.17;;;;;;;3.31;100.00;98457.16;5074168;28;21018;-68
2021/12/08 03:04:06;;;;;;;3.23;2.73;;;;;;;3.38;100.00;98450.22;5074421;28;20491;-68
2021/12/08 03:06:33;;;;;;;3.07;2.60;;;;;;;3.40;100.00;98461.38;5074294;28;20469;-68
2021/12/08 03:09:00;;;;;;;2.70;2.60;;;;;;;3.39;100.00;98458.94;5074023;28;20859;-68
2021/12/08 03:11:28;;;;;;;2.70;2.60;;;;;;;3.39;100.00;98469.44;5074312;28;20441;-68
2021/12/08 03:14:02;;;;;;;3.13;3.03;;;;;;;3.38;100.00;98491.41;5074185;28;20497;-68
2021/12/08 03:16:29;;;;;;;2.67;2.50;;;;;;;3.42;100.00;98475.13;5073959;28;20434;-68
2021/12/08 03:18:56;;;;;;;3.00;2.90;;;;;;;3.40;100.00;98487.63;5073850;28;20937;-68
2021/12/08 03:21:29;;;;;;;2.63;2.53;;;;;;;3.41;100.00;98484.00;5074025;28;20445;-68
2021/12/08 03:24:07;;;;;;;4.03;3.37;;;;;;;3.47;99.87;98493.78;5074207;28;20434;-68
2021/12/08 03:26:45;;;;;;;2.87;2.77;;;;;;;3.40;99.84;98492.06;5074821;28;20480;-68
2021/12/08 03:29:21;;;;;;;2.50;2.40;;;;;;;3.47;99.23;98493.00;5074606;28;20794;-68
2021/12/08 03:31:51;;;;;;;2.80;2.70;;;;;;;3.47;98.93;98499.03;5073929;28;20438;-68
2021/12/08 03:34:19;;;;;;;3.17;3.00;;;;;;;3.47;99.01;98501.66;5074090;28;20438;-68
2021/12/08 03:36:46;;;;;;;2.93;2.73;;;;;;;3.42;100.00;98504.00;5074602;28;20470;-68
2021/12/08 03:39:13;;;;;;;4.03;3.47;;;;;;;3.41;99.52;98505.00;5073995;28;20811;-68
2021/12/08 03:41:42;;;;;;;3.17;2.97;;;;;;;3.40;98.53;98508.63;5073396;28;21022;-67
2021/12/08 03:44:08;;;;;;;3.67;3.23;;;;;;;3.41;98.76;98505.00;5073159;28;20932;-67
2021/12/08 03:46:40;;;;;;;2.90;2.80;;;;;;;3.47;98.23;98509.53;5073259;28;20494;-67
2021/12/08 03:49:10;;;;;;;3.37;2.73;;;;;;;3.42;98.47;98511.88;5074064;28;20964;-67
2021/12/08 03:51:37;;;;;;;3.10;2.90;;;;;;;3.39;98.63;98522.72;5073149;28;20438;-67
2021/12/08 03:54:04;;;;;;;3.93;3.40;;;;;;;3.42;97.47;98511.88;5072836;28;20875;-67
2021/12/08 03:56:30;;;;;;;3.83;3.57;;;;;;;3.46;97.14;98520.19;5072826;28;20476;-68
2021/12/08 03:58:59;;;;;;;3.13;3.03;;;;;;;3.47;96.61;98527.91;5073875;28;20434;-68
2021/12/08 04:01:25;;;;;;;3.50;3.20;;;;;;;3.54;96.47;98528.84;5073170;28;20442;-68
2021/12/08 04:03:52;;;;;;;3.90;3.53;;;;;;;3.56;96.27;98534.72;5073275;28;20932;-68
2021/12/08 04:06:30;;;;;;;3.53;3.33;;;;;;;3.47;95.59;98522.66;5073114;28;20430;-68
2021/12/08 04:08:57;;;;;;;3.60;3.37;;;;;;;3.63;94.05;98535.66;5073488;28;20252;-68
2021/12/08 04:11:25;;;;;;;4.47;4.07;;;;;;;3.66;93.80;98529.25;5073067;28;20231;-67
2021/12/08 04:13:54;;;;;;;3.83;3.53;;;;;;;3.66;94.36;98537.94;5073271;28;20434;-67
2021/12/08 04:16:27;;;;;;;4.10;3.90;;;;;;;3.68;94.61;98543.03;5072911;28;20437;-67
2021/12/08 04:18:55;;;;;;;3.67;3.47;;;;;;;3.75;93.73;98547.38;5073748;28;20515;-67
2021/12/08 04:21:22;;;;;;;3.40;3.23;;;;;;;3.75;92.63;98549.19;5073199;28;20787;-67
2021/12/08 04:23:49;;;;;;;3.80;3.57;;;;;;;3.78;93.09;98548.84;5072534;28;20195;-67
2021/12/08 04:26:28;;;;;;;3.30;3.20;;;;;;;3.76;93.27;98550.84;5073517;28;20859;-68
2021/12/08 04:28:55;;;;;;;3.30;3.00;;;;;;;3.73;92.10;98552.03;5072462;28;20700;-68
2021/12/08 04:31:26;;;;;;;3.43;3.30;;;;;;;3.78;91.27;98549.69;5072332;28;20200;-68
2021/12/08 04:33:59;;;;;;;3.90;3.60;;;;;;;3.85;90.93;98550.59;5073221;28;20479;-68
2021/12/08 04:36:27;;;;;;;3.40;3.20;;;;;;;3.81;91.37;98544.06;5072907;28;20434;-68
2021/12/08 04:38:58;;;;;;;4.20;3.90;;;;;;;3.87;91.13;98553.88;5072539;28;20196;-67
2021/12/08 04:41:32;;;;;;;3.93;3.73;;;;;;;3.84;91.00;98543.69;5072245;28;20517;-67
2021/12/08 04:44:09;;;;;;;3.80;3.60;;;;;;;3.91;90.51;98554.31;5072301;28;20188;-68
2021/12/08 04:46:59;;;;;;;4.47;4.10;;;;;;;3.94;90.54;98560.06;5072391;28;20187;-68
2021/12/08 04:49:54;;;;;;;4.10;3.90;;;;;;;3.90;90.65;98574.53;5072962;28;20430;-68
2021/12/08 04:52:29;;;;;;;3.47;3.33;;;;;;;3.92;90.80;98566.47;5072156;28;20238;-68
2021/12/08 05:00:56;;;;;;;3.60;3.50;;;;;;;3.94;90.24;98591.56;5072277;28;20233;-67
2021/12/08 05:03:43;;;;;;;4.73;4.43;;;;;;;3.99;90.28;98594.47;5071921;28;20448;-68
2021/12/08 05:06:22;;;;;;;4.03;3.83;;;;;;;4.05;89.11;98604.28;5071236;28;20188;-67
2021/12/08 05:08:51;;;;;;;4.17;3.87;;;;;;;4.00;89.35;98601.34;5072681;28;20249;-67
2021/12/08 05:11:25;;;;;;;4.13;3.93;;;;;;;3.98;89.82;98606.00;5071768;28;20225;-67
2021/12/08 05:13:56;;;;;;;5.13;4.83;;;;;;;3.96;90.04;98605.34;5071817;28;20655;-67
2021/12/08 05:16:25;;;;;;;4.23;3.93;;;;;;;4.03;89.11;98608.06;5072418;28;20198;-67
2021/12/08 05:18:56;;;;;;;4.00;3.80;;;;;;;4.05;89.07;98614.78;5072536;28;20265;-68
2021/12/08 05:21:27;;;;;;;4.57;4.37;;;;;;;4.11;89.27;98616.72;5072334;28;20542;-68
2021/12/08 05:23:59;;;;;;;3.80;3.60;;;;;;;4.16;88.38;98621.44;5072406;28;20283;-68
2021/12/08 05:26:32;;;;;;;4.67;4.27;;;;;;;4.11;88.32;98615.88;5071600;28;20180;-68
2021/12/08 05:29:04;;;;;;;4.13;3.93;;;;;;;4.11;88.04;98614.09;5072282;28;20267;-67
2021/12/08 05:31:32;;;;;;;4.03;3.83;;;;;;;4.06;87.69;98616.44;5072101;28;20183;-68
2021/12/08 05:34:01;;;;;;;3.80;3.60;;;;;;;4.04;88.40;98607.91;5072470;28;20282;-67
2021/12/08 05:36:28;;;;;;;4.43;4.17;;;;;;;4.07;87.96;98622.50;5071841;28;20438;-67
2021/12/08 05:38:57;;;;;;;4.30;4.00;;;;;;;4.05;88.70;98609.53;5068248;28;20199;-67
2021/12/08 05:41:31;;;;;;;3.93;3.63;;;;;;;4.03;88.63;98622.03;5071811;28;20253;-66
2021/12/08 05:43:58;;;;;;;4.50;4.20;;;;;;;4.01;87.88;98629.25;5071692;28;20610;-68
2021/12/08 05:46:28;;;;;;;4.30;4.00;;;;;;;4.09;87.56;98637.06;5070841;28;20430;-67
2021/12/08 05:48:56;;;;;;;4.37;4.07;;;;;;;4.03;86.95;98640.44;5071073;28;20249;-70
2021/12/08 05:51:26;;;;;;;4.67;4.37;;;;;;;4.06;87.52;98647.13;5071057;28;20672;-70
2021/12/08 05:53:56;;;;;;;4.47;4.23;;;;;;;4.02;87.76;98643.22;5071493;28;20180;-69
2021/12/08 05:56:23;;;;;;;4.50;4.30;;;;;;;4.05;88.03;98641.06;5068696;28;20206;-70
2021/12/08 05:58:53;;;;;;;5.20;4.90;;;;;;;4.04;87.85;98639.41;5071540;28;20253;-70
2021/12/08 06:01:23;;;;;;;7.50;6.80;;;;;;;4.03;88.28;98652.72;5071393;28;20192;-70
2021/12/08 06:03:50;;;;;;;10.07;9.07;;;;;;;4.02;87.56;98657.19;5071064;28;20199;-71
2021/12/08 06:06:18;;;;;;;19.40;12.70;;;;;;;4.03;87.93;98653.56;5071553;28;20196;-74
2021/12/08 06:08:46;;;;;;;28.80;16.90;;;;;;;4.11;87.53;98661.38;5070505;28;20481;-72
2021/12/08 06:11:14;;;;;;;10.37;9.40;;;;;;;4.17;87.62;98673.00;5071054;28;20187;-74
2021/12/08 06:13:43;;;;;;;9.27;8.40;;;;;;;4.18;87.73;98678.09;5058262;28;20246;-72
2021/12/08 06:16:13;;;;;;;10.73;9.60;;;;;;;4.19;87.83;98677.09;5054892;28;20187;-72
2021/12/08 06:18:40;;;;;;;8.27;7.57;;;;;;;4.19;87.22;98674.47;5074635;28;20191;-72
2021/12/08 06:21:10;;;;;;;8.10;7.53;;;;;;;4.14;87.20;98676.81;5065751;28;20192;-71
2021/12/08 06:23:37;;;;;;;9.23;8.53;;;;;;;4.15;87.49;98688.94;5055194;28;20484;-70
2021/12/08 06:26:07;;;;;;;12.73;10.97;;;;;;;4.27;86.81;98687.53;5054537;28;20197;-73
2021/12/08 06:28:34;;;;;;;9.87;9.03;;;;;;;4.32;87.30;98694.88;5054765;28;20251;-70
2021/12/08 06:31:01;;;;;;;9.13;8.33;;;;;;;4.36;86.84;98698.78;5073830;28;20199;-71
2021/12/08 06:33:30;;;;;;;8.10;7.33;;;;;;;4.33;87.03;98702.59;5060037;28;20204;-74
2021/12/08 06:36:00;;;;;;;7.17;6.57;;;;;;;4.41;85.76;98693.84;5056764;28;20192;-72
2021/12/08 06:38:28;;;;;;;29.03;11.57;;;;;;;4.40;87.19;98695.66;5074257;28;20196;-75
2021/12/08 06:41:01;;;;;;;16.00;12.00;;;;;;;4.49;85.61;98705.09;5066858;28;20246;-70
2021/12/08 06:43:34;;;;;;;15.33;11.27;;;;;;;4.49;85.75;98705.09;5055532;28;20192;-72
2021/12/08 06:46:02;;;;;;;10.13;9.10;;;;;;;4.51;85.61;98710.19;5055363;28;20562;-71
2021/12/08 06:48:33;;;;;;;8.83;8.03;;;;;;;4.55;86.36;98712.31;5071819;28;20223;-72
2021/12/08 06:51:03;;;;;;;9.00;8.30;;;;;;;4.55;86.27;98720.19;5074577;28;20188;-70
2021/12/08 06:53:31;;;;;;;7.93;7.20;;;;;;;4.63;85.27;98728.00;5072754;28;20253;-70
2021/12/08 06:56:01;;;;;;;6.93;6.43;;;;;;;4.77;84.59;98729.84;5073074;28;20200;-69
2021/12/08 06:58:32;;;;;;;8.17;7.57;;;;;;;4.78;85.41;98733.31;5074349;28;20249;-72
2021/12/08 07:01:13;;;;;;;7.57;6.93;;;;;;;4.81;84.68;98733.75;5061681;28;20189;-73
2021/12/08 07:03:49;;;;;;;8.57;7.87;;;;;;;4.82;85.21;98734.59;5057049;28;20196;-71
2021/12/08 07:06:41;;;;;;;9.30;8.50;;;;;;;4.94;85.33;98736.59;5060140;28;20194;-69
2021/12/08 07:09:12;;;;;;;9.23;8.30;;;;;;;5.03;85.48;98727.63;5071091;28;20275;-69
2021/12/08 07:11:39;;;;;;;15.90;12.43;;;;;;;5.00;85.21;98740.31;5053904;28;20668;-70
2021/12/08 07:14:07;;;;;;;13.33;12.03;;;;;;;5.01;85.84;98734.88;5053566;28;20591;-71
2021/12/08 07:16:39;;;;;;;9.43;8.40;;;;;;;4.99;86.18;98747.41;5067390;28;20208;-71
2021/12/08 07:19:13;;;;;;;10.37;8.57;;;;;;;5.01;84.98;98745.41;5059094;28;20188;-72
2021/12/08 07:21:44;;;;;;;8.70;7.77;;;;;;;5.10;85.00;98738.25;5053598;28;20192;-71
2021/12/08 07:24:14;;;;;;;10.77;9.67;;;;;;;5.08;85.77;98746.34;5053377;28;20189;-70
2021/12/08 07:26:42;;;;;;;11.60;8.47;;;;;;;5.13;85.30;98743.97;5051919;28;20617;-69
2021/12/08 07:29:15;;;;;;;9.63;8.93;;;;;;;5.15;84.38;98752.50;5050653;28;20243;-70
2021/12/08 07:31:46;;;;;;;10.17;9.00;;;;;;;5.15;83.61;98752.50;5052531;28;20180;-70
2021/12/08 07:34:18;;;;;;;9.23;8.53;;;;;;;5.19;83.74;98761.66;5053175;28;20192;-71
2021/12/08 07:36:48;;;;;;;11.70;9.70;;;;;;;5.17;83.84;98755.78;5053099;28;20192;-70
2021/12/08 07:39:19;;;;;;;10.80;9.10;;;;;;;5.12;83.95;98766.03;5063530;28;20196;-69
2021/12/08 07:41:52;;;;;;;10.70;9.60;;;;;;;5.07;82.86;98757.84;5055955;28;20192;-70
2021/12/08 07:44:23;;;;;;;10.53;9.13;;;;;;;5.10;82.57;98764.56;5052743;28;20259;-70
2021/12/08 07:46:54;;;;;;;13.73;10.00;;;;;;;5.34;82.54;98765.16;5053482;28;20187;-70
2021/12/08 07:49:25;;;;;;;11.47;10.27;;;;;;;5.30;81.81;98771.78;5053207;28;20255;-69
2021/12/08 07:51:54;;;;;;;12.60;10.63;;;;;;;5.33;82.87;98770.59;5053572;28;20267;-67
2021/12/08 07:54:23;;;;;;;13.03;10.33;;;;;;;5.33;82.77;98763.53;5053482;28;20192;-69
2021/12/08 07:56:53;;;;;;;13.17;10.07;;;;;;;5.36;82.91;98767.59;5054126;28;20263;-66
2021/12/08 07:59:23;;;;;;;11.97;10.77;;;;;;;5.36;82.97;98759.72;5054200;28;20196;-67
2021/12/08 08:01:54;;;;;;;12.53;10.73;;;;;;;5.44;83.22;98770.94;5063039;28;20197;-70
2021/12/08 08:04:23;;;;;;;12.60;11.20;;;;;;;5.52;82.87;98770.88;5052965;28;20201;-69
2021/12/08 08:06:54;;;;;;;15.93;11.80;;;;;;;5.63;82.79;98769.59;5052954;28;20734;-69
2021/12/08 08:09:24;;;;;;;12.50;10.27;;;;;;;5.60;82.67;98773.41;5059854;28;20632;-68
2021/12/08 08:11:56;;;;;;;13.90;11.53;;;;;;;5.68;82.99;98785.69;5072778;28;20188;-68
2021/12/08 08:14:28;;;;;;;15.20;10.60;;;;;;;5.70;82.84;98779.22;5073277;28;20184;-69
2021/12/08 08:16:58;;;;;;;14.60;11.70;;;;;;;5.89;82.48;98784.97;5073037;28;20212;-67
2021/12/08 08:19:29;;;;;;;13.97;11.10;;;;;;;5.97;81.83;98780.44;5072503;28;20196;-67
2021/12/08 08:21:59;;;;;;;13.47;11.77;;;;;;;6.09;81.95;98786.03;5072807;28;20184;-67
2021/12/08 08:24:26;;;;;;;16.67;13.03;;;;;;;6.12;81.70;98791.75;5073326;28;20192;-67
2021/12/08 08:26:56;;;;;;;15.80;12.27;;;;;;;6.21;80.80;98792.47;5072910;28;20191;-67
2021/12/08 08:29:24;;;;;;;18.03;13.80;;;;;;;6.24;81.50;98786.81;5072497;28;20275;-66
2021/12/08 08:31:58;;;;;;;17.37;13.17;;;;;;;6.29;81.30;98800.25;5072358;28;20607;-67
2021/12/08 08:34:26;;;;;;;13.00;11.63;;;;;;;6.26;80.90;98796.19;5072598;28;20187;-67
2021/12/08 08:36:53;;;;;;;14.30;11.57;;;;;;;6.27;80.94;98796.97;5072311;28;20193;-66
2021/12/08 08:39:24;;;;;;;18.53;13.50;;;;;;;6.16;80.78;98800.13;5072594;28;20271;-66
2021/12/08 08:41:54;;;;;;;14.00;12.43;;;;;;;6.33;81.59;98791.78;5069693;28;20184;-66
2021/12/08 08:44:26;;;;;;;15.53;11.93;;;;;;;6.31;81.04;98799.06;5072307;28;20261;-66
2021/12/08 08:46:54;;;;;;;15.50;12.07;;;;;;;6.26;81.25;98790.06;5073371;28;20187;-67
2021/12/08 08:49:24;;;;;;;17.87;13.23;;;;;;;6.27;81.07;98796.97;5072349;28;20571;-66
2021/12/08 08:51:59;;;;;;;16.67;13.97;;;;;;;6.35;81.38;98786.31;5072056;28;20195;-66
2021/12/08 08:54:29;;;;;;;20.37;14.93;;;;;;;6.48;80.81;98794.38;5072168;28;20181;-66
2021/12/08 08:57:00;;;;;;;22.97;14.10;;;;;;;6.27;81.39;98791.69;5072128;28;20192;-66
2021/12/08 08:59:34;;;;;;;21.80;14.90;;;;;;;6.45;80.82;98787.66;5072071;28;20652;-66
2021/12/08 09:02:08;;;;;;;17.93;14.73;;;;;;;6.49;80.50;98796.03;5071879;28;20200;-66
2021/12/08 09:04:38;;;;;;;18.17;13.23;;;;;;;6.46;80.62;98791.13;5073137;28;20184;-66
2021/12/08 09:07:09;;;;;;;19.33;14.43;;;;;;;6.33;80.88;98786.50;5061868;28;20576;-66
2021/12/08 09:09:39;;;;;;;18.07;13.37;;;;;;;6.40;80.21;98797.94;5060928;28;20200;-66
2021/12/08 09:12:12;;;;;;;18.03;13.07;;;;;;;6.20;79.63;98798.75;5071913;28;20217;-66
2021/12/08 09:14:44;;;;;;;19.80;14.23;;;;;;;6.20;81.14;98780.28;5072248;28;20237;-66
2021/12/08 09:17:15;;;;;;;23.67;15.30;;;;;;;6.16;81.46;98789.56;5072220;28;20188;-65
2021/12/08 09:19:46;;;;;;;20.67;14.33;;;;;;;6.34;82.03;98776.78;5072368;28;20188;-67
2021/12/08 09:22:18;;;;;;;21.90;15.50;;;;;;;6.35;81.38;98783.69;5072281;28;20207;-67
2021/12/08 09:24:49;;;;;;;19.10;15.00;;;;;;;6.45;80.28;98790.28;5071600;28;20179;-69
2021/12/08 09:27:22;;;;;;;22.50;15.77;;;;;;;6.51;80.01;98789.56;5070037;28;20180;-70
2021/12/08 09:29:56;;;;;;;25.53;16.27;;;;;;;6.53;80.20;98784.09;5069975;28;20572;-69
2021/12/08 09:32:29;;;;;;;18.47;14.43;;;;;;;6.35;79.96;98783.69;5070259;28;20576;-67
2021/12/08 09:35:00;;;;;;;21.70;13.90;;;;;;;6.15;80.89;98777.38;5070779;28;20188;-67
2021/12/08 09:37:30;;;;;;;24.70;15.03;;;;;;;6.22;80.94;98776.47;5072035;28;20188;-67
2021/12/08 09:40:00;;;;;;;23.97;15.13;;;;;;;6.36;81.33;98769.50;5066903;28;20242;-67
2021/12/08 09:42:31;;;;;;;19.83;14.13;;;;;;;6.34;80.51;98774.97;5051525;28;20225;-67
2021/12/08 09:45:06;;;;;;;20.30;14.77;;;;;;;6.54;80.78;98767.25;5051767;28;20761;-66
2021/12/08 09:47:33;;;;;;;22.17;15.00;;;;;;;6.81;80.48;98764.66;5052199;28;20250;-68
2021/12/08 09:50:02;;;;;;;29.23;17.13;;;;;;;6.91;79.83;98765.19;5051424;28;20715;-66
2021/12/08 09:52:30;;;;;;;28.20;17.80;;;;;;;6.86;80.13;98762.25;5053174;28;20248;-67
2021/12/08 09:54:57;;;;;;;20.73;15.23;;;;;;;6.81;80.63;98763.88;5055672;28;20193;-67
2021/12/08 09:57:24;;;;;;;22.07;15.87;;;;;;;6.90;80.46;98768.78;5055716;28;20193;-66
2021/12/08 09:59:52;;;;;;;21.83;14.50;;;;;;;7.07;78.91;98764.88;5055288;28;20660;-66
2021/12/08 10:02:28;;;;;;;21.00;14.13;;;;;;;7.04;78.92;98769.72;5072388;28;20281;-66
2021/12/08 10:04:57;;;;;;;16.63;12.80;;;;;;;7.09;77.58;98772.59;5075641;28;20199;-66
2021/12/08 10:07:25;;;;;;;19.53;13.70;;;;;;;7.11;77.71;98771.41;5062497;28;20292;-65
2021/12/08 10:09:52;;;;;;;19.80;13.73;;;;;;;7.28;77.10;98777.22;5054889;28;20576;-67
2021/12/08 10:12:20;;;;;;;16.63;12.43;;;;;;;7.32;76.08;98779.31;5054999;28;20733;-66
2021/12/08 10:14:47;;;;;;;13.57;11.60;;;;;;;7.39;75.50;98768.78;5055319;28;20199;-66
2021/12/08 10:17:14;;;;;;;17.37;13.20;;;;;;;7.39;75.74;98780.16;5054981;28;20196;-66
2021/12/08 10:19:43;;;;;;;16.83;13.50;;;;;;;7.54;75.66;98774.75;5055185;28;20198;-67
2021/12/08 10:22:18;;;;;;;15.33;11.67;;;;;;;7.61;74.66;98779.09;5055172;28;20552;-66
2021/12/08 10:25:04;;;;;;;13.60;11.37;;;;;;;7.75;75.44;98764.09;5055084;28;20204;-67
2021/12/08 10:27:32;;;;;;;16.27;12.20;;;;;;;7.91;75.27;98766.41;5054747;28;20238;-68
2021/12/08 10:30:20;;;;;;;14.77;12.30;;;;;;;8.15;74.95;98760.59;5054840;28;20231;-67
2021/12/08 10:32:48;;;;;;;14.13;11.53;;;;;;;8.05;74.49;98774.19;5060643;28;20189;-68
2021/12/08 10:35:47;;;;;;;13.70;11.87;;;;;;;8.09;73.63;98767.50;5074569;28;20233;-68
2021/12/08 10:38:16;;;;;;;15.53;13.03;;;;;;;8.20;73.36;98768.75;5075526;28;20238;-68
2021/12/08 10:41:01;;;;;;;17.53;13.23;;;;;;;8.07;72.79;98766.06;5063442;28;20195;-70
2021/12/08 10:43:28;;;;;;;13.30;11.90;;;;;;;8.05;72.13;98774.19;5054773;28;20233;-70
2021/12/08 10:46:04;;;;;;;16.30;13.27;;;;;;;8.21;71.89;98770.44;5054669;28;20228;-71
2021/12/08 10:48:36;;;;;;;18.00;13.63;;;;;;;8.23;72.15;98774.53;5072865;28;20771;-70
2021/12/08 10:56:44;;;;;;;13.13;11.47;;;;;;;8.66;69.68;98767.91;5074236;28;20671;-69
2021/12/08 10:59:11;;;;;;;13.80;11.43;;;;;;;8.68;70.48;98757.09;5074549;28;20627;-70
2021/12/08 11:01:38;;;;;;;18.40;13.43;;;;;;;8.91;70.12;98768.13;5073742;28;20195;-70
2021/12/08 11:04:06;;;;;;;12.83;10.73;;;;;;;8.62;69.13;98765.88;5073080;28;20249;-69
2021/12/08 11:06:36;;;;;;;12.50;11.20;;;;;;;8.60;69.84;98760.78;5067957;28;20255;-69
2021/12/08 11:09:06;;;;;;;11.83;10.63;;;;;;;8.47;70.34;98759.94;5054102;28;20208;-68
2021/12/08 11:11:35;;;;;;;13.13;11.80;;;;;;;8.49;69.86;98769.28;5054205;28;20334;-69
2021/12/08 11:14:05;;;;;;;11.83;10.83;;;;;;;8.38;69.77;98769.88;5053721;28;20193;-69
2021/12/08 11:16:34;;;;;;;12.10;10.43;;;;;;;8.31;69.74;98769.06;5054073;28;20245;-69
2021/12/08 11:19:05;;;;;;;12.87;11.57;;;;;;;8.40;70.17;98774.97;5054565;28;20258;-71
2021/12/08 11:21:36;;;;;;;15.87;10.90;;;;;;;8.64;69.30;98761.16;5053948;28;20185;-70
2021/12/08 11:24:11;;;;;;;13.37;11.20;;;;;;;8.39;69.67;98763.59;5054324;28;20298;-68
2021/12/08 11:26:41;;;;;;;12.17;10.07;;;;;;;8.41;69.38;98766.03;5053578;28;20228;-70
2021/12/08 11:29:11;;;;;;;12.50;11.20;;;;;;;8.29;69.90;98770.28;5053742;28;20219;-69
2021/12/08 11:31:40;;;;;;;13.57;10.97;;;;;;;8.31;70.41;98760.28;5054253;28;20193;-69
2021/12/08 11:34:19;;;;;;;19.77;12.20;;;;;;;8.21;70.09;98768.59;5070081;28;20191;-69
2021/12/08 11:36:52;;;;;;;12.97;11.30;;;;;;;8.36;71.40;98753.38;5073446;28;20716;-69
2021/12/08 11:39:22;;;;;;;12.47;10.73;;;;;;;8.55;69.88;98767.69;5073748;28;20196;-69
2021/12/08 11:41:51;;;;;;;11.10;9.93;;;;;;;8.51;69.84;98769.91;5053716;28;20330;-70
2021/12/08 11:44:20;;;;;;;12.37;11.10;;;;;;;8.39;70.39;98768.03;5053840;28;20201;-71
2021/12/08 11:46:50;;;;;;;12.47;10.67;;;;;;;8.47;69.38;98781.09;5066788;28;20652;-69
2021/12/08 11:49:17;;;;;;;13.50;11.30;;;;;;;8.39;69.86;98768.03;5073131;28;20598;-70
2021/12/08 11:51:58;;;;;;;11.97;10.37;;;;;;;8.23;70.16;98771.88;5073757;28;20192;-69
2021/12/08 11:54:28;;;;;;;14.87;11.27;;;;;;;8.24;70.84;98764.72;5074059;28;20188;-69
2021/12/08 11:57:02;;;;;;;17.80;11.53;;;;;;;8.49;70.69;98763.19;5073008;28;20663;-70
2021/12/08 11:59:29;;;;;;;14.17;10.23;;;;;;;8.56;69.71;98766.66;5073033;28;20194;-70
2021/12/08 12:01:56;;;;;;;13.47;11.90;;;;;;;8.62;69.90;98757.94;5073209;28;20191;-69
2021/12/08 12:04:23;;;;;;;17.70;11.90;;;;;;;8.84;69.85;98762.84;5072982;28;20191;-69
2021/12/08 12:06:50;;;;;;;17.20;11.50;;;;;;;9.09;70.13;98755.09;5065064;28;20195;-70
2021/12/08 12:09:18;;;;;;;15.90;11.20;;;;;;;8.82;68.34;98758.78;5058896;28;20219;-70
2021/12/08 12:11:46;;;;;;;11.17;10.10;;;;;;;8.80;68.65;98772.22;5072980;28;20199;-69
2021/12/08 12:14:12;;;;;;;12.70;11.40;;;;;;;8.75;68.98;98768.53;5072912;28;20199;-69